sensor_id;sensor_type;location;lat;lon;timestamp;pressure;altitude;pressure_sealevel;temperature;humidity
19108;BME280;9686;48.832;9.126;2023-02-18T00:00:13;99040.63;;;15.29;nan
19108;BME280;9686;48.832;9.126;2023-02-18T00:02:39;99038.00;;;15.29;nan
19108;BME280;9686;48.832;9.126;2023-02-18T00:05:05;99032.09;;;15.14;nan
19108;BME280;9686;48.832;9.126;2023-02-18T00:07:37;99033.75;;;15.21;nan
19108;BME280;9686;48.832;9.126;2023-02-18T00:10:05;99027.69;;;15.14;nan
19108;BME280;9686;48.832;9.126;2023-02-18T00:12:31;99031.91;;;15.27;nan
19108;BME280;9686;48.832;9.126;2023-02-18T00:14:56;99037.16;;;15.27;nan
19108;BME280;9686;48.832;9.126;2023-02-18T00:17:22;99030.84;;;15.43;nan
19108;BME280;9686;48.832;9.126;2023-02-18T00:19:47;99034.44;;;15.38;nan
19108;BME280;9686;48.832;9.126;2023-02-18T00:22:13;99043.19;;;15.38;nan
19108;BME280;9686;48.832;9.126;2023-02-18T00:24:38;99038.91;;;15.27;nan
19108;BME280;9686;48.832;9.126;2023-02-18T00:27:03;99039.59;;;15.46;nan
19108;BME280;9686;48.832;9.126;2023-02-18T00:29:29;99037.97;;;15.32;nan
19108;BME280;9686;48.832;9.126;2023-02-18T00:31:54;99036.28;;;15.28;nan
19108;BME280;9686;48.832;9.126;2023-02-18T00:34:20;99034.50;;;15.30;nan
19108;BME280;9686;48.832;9.126;2023-02-18T00:36:45;99035.31;;;15.34;nan
19108;BME280;9686;48.832;9.126;2023-02-18T00:39:11;99024.03;;;15.26;nan
19108;BME280;9686;48.832;9.126;2023-02-18T00:41:37;99017.72;;;15.42;nan
19108;BME280;9686;48.832;9.126;2023-02-18T00:44:03;99005.50;;;15.39;nan
19108;BME280;9686;48.832;9.126;2023-02-18T00:46:29;99009.94;;;15.33;nan
19108;BME280;9686;48.832;9.126;2023-02-18T00:48:55;99004.91;;;15.16;nan
19108;BME280;9686;48.832;9.126;2023-02-18T00:51:21;98989.00;;;15.28;nan
19108;BME280;9686;48.832;9.126;2023-02-18T00:53:47;98987.31;;;15.23;nan
19108;BME280;9686;48.832;9.126;2023-02-18T00:56:13;98991.84;;;15.11;nan
19108;BME280;9686;48.832;9.126;2023-02-18T00:58:39;98987.50;;;15.06;nan
19108;BME280;9686;48.832;9.126;2023-02-18T01:01:05;98987.47;;;15.09;nan
19108;BME280;9686;48.832;9.126;2023-02-18T01:03:31;98985.75;;;15.05;nan
19108;BME280;9686;48.832;9.126;2023-02-18T01:05:57;98984.88;;;15.06;nan
19108;BME280;9686;48.832;9.126;2023-02-18T01:08:22;98991.06;;;15.02;nan
19108;BME280;9686;48.832;9.126;2023-02-18T01:10:49;98982.31;;;15.01;nan
19108;BME280;9686;48.832;9.126;2023-02-18T01:13:16;98992.78;;;15.04;nan
19108;BME280;9686;48.832;9.126;2023-02-18T01:15:42;98988.41;;;15.03;nan
19108;BME280;9686;48.832;9.126;2023-02-18T01:18:08;98986.59;;;15.10;nan
19108;BME280;9686;48.832;9.126;2023-02-18T01:20:35;98981.38;;;15.07;nan
19108;BME280;9686;48.832;9.126;2023-02-18T01:23:00;98990.28;;;14.94;nan
19108;BME280;9686;48.832;9.126;2023-02-18T01:25:26;98977.25;;;14.86;nan
19108;BME280;9686;48.832;9.126;2023-02-18T01:27:51;98986.84;;;14.87;nan
19108;BME280;9686;48.832;9.126;2023-02-18T01:30:17;98976.41;;;14.84;nan
19108;BME280;9686;48.832;9.126;2023-02-18T01:32:43;98971.06;;;14.90;nan
19108;BME280;9686;48.832;9.126;2023-02-18T01:35:11;98984.53;;;14.60;nan
19108;BME280;9686;48.832;9.126;2023-02-18T01:37:37;98981.69;;;14.76;nan
19108;BME280;9686;48.832;9.126;2023-02-18T01:40:03;98975.56;;;14.77;nan
19108;BME280;9686;48.832;9.126;2023-02-18T01:42:29;98980.91;;;14.68;nan
19108;BME280;9686;48.832;9.126;2023-02-18T01:45:36;98967.84;;;14.64;nan
19108;BME280;9686;48.832;9.126;2023-02-18T01:48:14;98987.22;;;14.50;nan
19108;BME280;9686;48.832;9.126;2023-02-18T01:50:50;98983.63;;;14.62;nan
19108;BME280;9686;48.832;9.126;2023-02-18T01:53:21;98981.81;;;14.66;nan
19108;BME280;9686;48.832;9.126;2023-02-18T01:55:50;98989.72;;;14.63;nan
19108;BME280;9686;48.832;9.126;2023-02-18T01:58:16;98983.50;;;14.71;nan
19108;BME280;9686;48.832;9.126;2023-02-18T02:00:42;98981.88;;;14.61;nan
19108;BME280;9686;48.832;9.126;2023-02-18T02:03:07;98995.00;;;14.60;nan
19108;BME280;9686;48.832;9.126;2023-02-18T02:05:33;98978.16;;;14.79;nan
19108;BME280;9686;48.832;9.126;2023-02-18T02:08:00;98971.34;;;14.64;nan
19108;BME280;9686;48.832;9.126;2023-02-18T02:10:37;98973.16;;;14.59;nan
19108;BME280;9686;48.832;9.126;2023-02-18T02:16:22;98992.31;;;14.67;nan
19108;BME280;9686;48.832;9.126;2023-02-18T02:24:45;98973.06;;;14.67;nan
19108;BME280;9686;48.832;9.126;2023-02-18T02:35:34;98967.69;;;14.77;nan
19108;BME280;9686;48.832;9.126;2023-02-18T02:38:06;98965.97;;;14.75;nan
19108;BME280;9686;48.832;9.126;2023-02-18T02:41:02;98962.47;;;14.74;nan
19108;BME280;9686;48.832;9.126;2023-02-18T02:43:55;98961.69;;;14.68;nan
19108;BME280;9686;48.832;9.126;2023-02-18T02:46:39;98962.56;;;14.68;nan
19108;BME280;9686;48.832;9.126;2023-02-18T02:52:11;98959.06;;;14.68;nan
19108;BME280;9686;48.832;9.126;2023-02-18T02:54:37;98962.50;;;14.73;nan
19108;BME280;9686;48.832;9.126;2023-02-18T02:59:58;98953.88;;;14.62;nan
19108;BME280;9686;48.832;9.126;2023-02-18T03:05:16;98948.53;;;14.69;nan
19108;BME280;9686;48.832;9.126;2023-02-18T03:07:53;98953.78;;;14.69;nan
19108;BME280;9686;48.832;9.126;2023-02-18T03:13:09;98954.78;;;14.56;nan
19108;BME280;9686;48.832;9.126;2023-02-18T03:15:54;98943.38;;;14.62;nan
19108;BME280;9686;48.832;9.126;2023-02-18T03:18:32;98937.25;;;14.61;nan
19108;BME280;9686;48.832;9.126;2023-02-18T03:21:05;98941.66;;;14.56;nan
19108;BME280;9686;48.832;9.126;2023-02-18T03:23:45;98932.94;;;14.56;nan
19108;BME280;9686;48.832;9.126;2023-02-18T03:26:15;98938.22;;;14.51;nan
19108;BME280;9686;48.832;9.126;2023-02-18T03:28:43;98937.38;;;14.49;nan
19108;BME280;9686;48.832;9.126;2023-02-18T03:31:12;98929.53;;;14.47;nan
19108;BME280;9686;48.832;9.126;2023-02-18T03:34:06;98926.84;;;14.52;nan
19108;BME280;9686;48.832;9.126;2023-02-18T03:36:31;98931.25;;;14.50;nan
19108;BME280;9686;48.832;9.126;2023-02-18T03:41:28;98923.47;;;14.38;nan
19108;BME280;9686;48.832;9.126;2023-02-18T03:43:58;98935.69;;;14.40;nan
19108;BME280;9686;48.832;9.126;2023-02-18T03:46:26;98927.91;;;14.33;nan
19108;BME280;9686;48.832;9.126;2023-02-18T03:48:51;98925.16;;;14.46;nan
19108;BME280;9686;48.832;9.126;2023-02-18T03:51:18;98934.81;;;14.41;nan
19108;BME280;9686;48.832;9.126;2023-02-18T03:53:44;98941.84;;;14.36;nan
19108;BME280;9686;48.832;9.126;2023-02-18T03:56:09;98938.41;;;14.28;nan
19108;BME280;9686;48.832;9.126;2023-02-18T03:58:34;98942.75;;;14.34;nan
19108;BME280;9686;48.832;9.126;2023-02-18T04:01:00;98944.50;;;14.33;nan
19108;BME280;9686;48.832;9.126;2023-02-18T04:03:25;98936.78;;;14.15;nan
19108;BME280;9686;48.832;9.126;2023-02-18T04:05:50;98941.97;;;14.21;nan
19108;BME280;9686;48.832;9.126;2023-02-18T04:08:16;98937.66;;;14.17;nan
19108;BME280;9686;48.832;9.126;2023-02-18T04:10:41;98936.66;;;14.27;nan
19108;BME280;9686;48.832;9.126;2023-02-18T04:13:06;98937.50;;;14.34;nan
19108;BME280;9686;48.832;9.126;2023-02-18T04:15:32;98941.94;;;14.24;nan
19108;BME280;9686;48.832;9.126;2023-02-18T04:17:58;98934.91;;;14.29;nan
19108;BME280;9686;48.832;9.126;2023-02-18T04:20:23;98923.50;;;14.36;nan
19108;BME280;9686;48.832;9.126;2023-02-18T04:22:49;98920.81;;;14.44;nan
19108;BME280;9686;48.832;9.126;2023-02-18T04:25:14;98920.00;;;14.36;nan
19108;BME280;9686;48.832;9.126;2023-02-18T04:27:40;98913.91;;;14.34;nan
19108;BME280;9686;48.832;9.126;2023-02-18T04:30:06;98917.31;;;14.40;nan
19108;BME280;9686;48.832;9.126;2023-02-18T04:32:32;98913.84;;;14.40;nan
19108;BME280;9686;48.832;9.126;2023-02-18T04:34:57;98910.34;;;14.39;nan
19108;BME280;9686;48.832;9.126;2023-02-18T04:37:22;98912.13;;;14.36;nan
19108;BME280;9686;48.832;9.126;2023-02-18T04:39:48;98930.53;;;14.28;nan
19108;BME280;9686;48.832;9.126;2023-02-18T04:42:13;98921.84;;;14.23;nan
19108;BME280;9686;48.832;9.126;2023-02-18T04:44:38;98916.59;;;14.23;nan
19108;BME280;9686;48.832;9.126;2023-02-18T04:47:04;98915.81;;;14.15;nan
19108;BME280;9686;48.832;9.126;2023-02-18T04:49:30;98919.28;;;14.18;nan
19108;BME280;9686;48.832;9.126;2023-02-18T04:51:55;98921.91;;;14.17;nan
19108;BME280;9686;48.832;9.126;2023-02-18T04:54:20;98916.78;;;14.06;nan
19108;BME280;9686;48.832;9.126;2023-02-18T04:56:46;98920.22;;;14.11;nan
19108;BME280;9686;48.832;9.126;2023-02-18T04:59:11;98920.28;;;14.07;nan
19108;BME280;9686;48.832;9.126;2023-02-18T05:01:36;98926.41;;;14.06;nan
19108;BME280;9686;48.832;9.126;2023-02-18T05:04:02;98919.38;;;14.08;nan
19108;BME280;9686;48.832;9.126;2023-02-18T05:06:27;98921.16;;;14.01;nan
19108;BME280;9686;48.832;9.126;2023-02-18T05:08:52;98921.22;;;13.95;nan
19108;BME280;9686;48.832;9.126;2023-02-18T05:11:18;98916.88;;;13.93;nan
19108;BME280;9686;48.832;9.126;2023-02-18T05:13:43;98925.63;;;13.92;nan
19108;BME280;9686;48.832;9.126;2023-02-18T05:16:08;98924.75;;;13.93;nan
19108;BME280;9686;48.832;9.126;2023-02-18T05:18:33;98923.03;;;13.87;nan
19108;BME280;9686;48.832;9.126;2023-02-18T05:20:59;98924.84;;;13.82;nan
19108;BME280;9686;48.832;9.126;2023-02-18T05:23:24;98918.72;;;13.83;nan
19108;BME280;9686;48.832;9.126;2023-02-18T05:25:50;98917.84;;;13.82;nan
19108;BME280;9686;48.832;9.126;2023-02-18T05:28:15;98916.91;;;13.91;nan
19108;BME280;9686;48.832;9.126;2023-02-18T05:30:41;98923.09;;;13.82;nan
19108;BME280;9686;48.832;9.126;2023-02-18T05:33:06;98921.28;;;13.89;nan
19108;BME280;9686;48.832;9.126;2023-02-18T05:35:31;98918.63;;;13.92;nan
19108;BME280;9686;48.832;9.126;2023-02-18T05:37:57;98923.97;;;13.78;nan
19108;BME280;9686;48.832;9.126;2023-02-18T05:40:22;98916.97;;;13.82;nan
19108;BME280;9686;48.832;9.126;2023-02-18T05:42:47;98915.19;;;13.87;nan
19108;BME280;9686;48.832;9.126;2023-02-18T05:45:13;98911.69;;;13.88;nan
19108;BME280;9686;48.832;9.126;2023-02-18T05:47:38;98916.13;;;13.75;nan
19108;BME280;9686;48.832;9.126;2023-02-18T05:50:04;98916.97;;;13.82;nan
19108;BME280;9686;48.832;9.126;2023-02-18T05:52:29;98914.34;;;13.83;nan
19108;BME280;9686;48.832;9.126;2023-02-18T05:54:55;98911.72;;;13.85;nan
19108;BME280;9686;48.832;9.126;2023-02-18T05:57:20;98911.69;;;13.88;nan
19108;BME280;9686;48.832;9.126;2023-02-18T05:59:46;98910.88;;;13.75;nan
19108;BME280;9686;48.832;9.126;2023-02-18T06:02:11;98907.38;;;13.76;nan
19108;BME280;9686;48.832;9.126;2023-02-18T06:04:36;98904.72;;;13.85;nan
19108;BME280;9686;48.832;9.126;2023-02-18T06:07:02;98907.34;;;13.85;nan
19108;BME280;9686;48.832;9.126;2023-02-18T06:09:27;98910.88;;;13.80;nan
19108;BME280;9686;48.832;9.126;2023-02-18T06:11:53;98909.97;;;13.82;nan
19108;BME280;9686;48.832;9.126;2023-02-18T06:14:18;98907.25;;;13.93;nan
19108;BME280;9686;48.832;9.126;2023-02-18T06:16:43;98922.25;;;13.73;nan
19108;BME280;9686;48.832;9.126;2023-02-18T06:19:09;98922.97;;;13.95;nan
19108;BME280;9686;48.832;9.126;2023-02-18T06:21:34;98923.88;;;13.92;nan
19108;BME280;9686;48.832;9.126;2023-02-18T06:23:59;98911.59;;;13.96;nan
19108;BME280;9686;48.832;9.126;2023-02-18T06:26:25;98915.09;;;13.98;nan
19108;BME280;9686;48.832;9.126;2023-02-18T06:28:50;98916.81;;;14.00;nan
19108;BME280;9686;48.832;9.126;2023-02-18T06:31:16;98916.03;;;13.91;nan
19108;BME280;9686;48.832;9.126;2023-02-18T06:33:41;98906.34;;;13.97;nan
19108;BME280;9686;48.832;9.126;2023-02-18T06:36:07;98911.53;;;14.08;nan
19108;BME280;9686;48.832;9.126;2023-02-18T06:38:36;98909.78;;;14.02;nan
19108;BME280;9686;48.832;9.126;2023-02-18T06:41:02;98915.00;;;14.10;nan
19108;BME280;9686;48.832;9.126;2023-02-18T06:43:27;98909.63;;;14.20;nan
19108;BME280;9686;48.832;9.126;2023-02-18T06:45:52;98916.66;;;14.18;nan
19108;BME280;9686;48.832;9.126;2023-02-18T06:48:18;98913.91;;;14.32;nan
19108;BME280;9686;48.832;9.126;2023-02-18T06:50:43;98926.31;;;14.15;nan
19108;BME280;9686;48.832;9.126;2023-02-18T06:53:09;98914.78;;;14.30;nan
19108;BME280;9686;48.832;9.126;2023-02-18T06:55:35;98920.94;;;14.27;nan
19108;BME280;9686;48.832;9.126;2023-02-18T06:58:00;98913.91;;;14.29;nan
19108;BME280;9686;48.832;9.126;2023-02-18T07:00:25;98912.94;;;14.42;nan
19108;BME280;9686;48.832;9.126;2023-02-18T07:02:50;98920.00;;;14.36;nan
19108;BME280;9686;48.832;9.126;2023-02-18T07:05:16;98918.22;;;14.39;nan
19108;BME280;9686;48.832;9.126;2023-02-18T07:07:41;98919.03;;;14.47;nan
19108;BME280;9686;48.832;9.126;2023-02-18T07:10:07;98907.50;;;14.62;nan
19108;BME280;9686;48.832;9.126;2023-02-18T07:12:33;98917.16;;;14.60;nan
19108;BME280;9686;48.832;9.126;2023-02-18T07:14:58;98904.09;;;14.54;nan
19108;BME280;9686;48.832;9.126;2023-02-18T07:17:23;98904.94;;;14.58;nan
19108;BME280;9686;48.832;9.126;2023-02-18T07:19:49;98900.47;;;14.66;nan
19108;BME280;9686;48.832;9.126;2023-02-18T07:22:14;98906.66;;;14.62;nan
19108;BME280;9686;48.832;9.126;2023-02-18T07:24:39;98902.28;;;14.62;nan
19108;BME280;9686;48.832;9.126;2023-02-18T07:27:05;98898.75;;;14.63;nan
19108;BME280;9686;48.832;9.126;2023-02-18T07:29:30;98902.84;;;14.87;nan
19108;BME280;9686;48.832;9.126;2023-02-18T07:31:55;98892.41;;;14.79;nan
19108;BME280;9686;48.832;9.126;2023-02-18T07:34:21;98885.38;;;14.86;nan
19108;BME280;9686;48.832;9.126;2023-02-18T07:36:46;98884.44;;;14.90;nan
19108;BME280;9686;48.832;9.126;2023-02-18T07:39:12;98882.63;;;14.95;nan
19108;BME280;9686;48.832;9.126;2023-02-18T07:41:37;98873.72;;;15.05;nan
19108;BME280;9686;48.832;9.126;2023-02-18T07:44:03;98871.91;;;15.12;nan
19108;BME280;9686;48.832;9.126;2023-02-18T07:46:28;98876.38;;;15.04;nan
19108;BME280;9686;48.832;9.126;2023-02-18T07:48:55;98876.50;;;14.93;nan
19108;BME280;9686;48.832;9.126;2023-02-18T07:51:21;98866.75;;;15.03;nan
19108;BME280;9686;48.832;9.126;2023-02-18T07:53:46;98869.25;;;15.14;nan
19108;BME280;9686;48.832;9.126;2023-02-18T07:56:11;98863.78;;;15.27;nan
19108;BME280;9686;48.832;9.126;2023-02-18T07:58:38;98865.25;;;15.47;nan
19108;BME280;9686;48.832;9.126;2023-02-18T08:01:08;98864.47;;;15.41;nan
19108;BME280;9686;48.832;9.126;2023-02-18T08:03:34;98880.22;;;15.41;nan
19108;BME280;9686;48.832;9.126;2023-02-18T08:06:02;98881.09;;;15.42;nan
19108;BME280;9686;48.832;9.126;2023-02-18T08:08:29;98883.69;;;15.45;nan
19108;BME280;9686;48.832;9.126;2023-02-18T08:10:58;98878.56;;;15.34;nan
19108;BME280;9686;48.832;9.126;2023-02-18T08:13:24;98890.09;;;15.24;nan
19108;BME280;9686;48.832;9.126;2023-02-18T08:15:49;98885.56;;;15.34;nan
19108;BME280;9686;48.832;9.126;2023-02-18T08:18:17;98879.53;;;15.29;nan
19108;BME280;9686;48.832;9.126;2023-02-18T08:20:43;98883.84;;;15.33;nan
19108;BME280;9686;48.832;9.126;2023-02-18T08:23:09;98888.97;;;15.42;nan
19108;BME280;9686;48.832;9.126;2023-02-18T08:25:35;98873.84;;;15.58;nan
19108;BME280;9686;48.832;9.126;2023-02-18T08:28:01;98876.44;;;15.64;nan
19108;BME280;9686;48.832;9.126;2023-02-18T08:30:26;98872.88;;;15.66;nan
19108;BME280;9686;48.832;9.126;2023-02-18T08:32:51;98868.34;;;15.75;nan
19108;BME280;9686;48.832;9.126;2023-02-18T08:35:17;98870.22;;;15.68;nan
19108;BME280;9686;48.832;9.126;2023-02-18T08:37:42;98863.03;;;15.78;nan
19108;BME280;9686;48.832;9.126;2023-02-18T08:40:08;98858.72;;;15.73;nan
19108;BME280;9686;48.832;9.126;2023-02-18T08:42:34;98866.53;;;15.78;nan
19108;BME280;9686;48.832;9.126;2023-02-18T08:44:59;98863.72;;;15.90;nan
19108;BME280;9686;48.832;9.126;2023-02-18T08:47:24;98865.53;;;15.85;nan
19108;BME280;9686;48.832;9.126;2023-02-18T08:49:52;98865.31;;;15.99;nan
19108;BME280;9686;48.832;9.126;2023-02-18T08:52:17;98858.34;;;15.96;nan
19108;BME280;9686;48.832;9.126;2023-02-18T08:54:43;98859.13;;;16.01;nan
19108;BME280;9686;48.832;9.126;2023-02-18T08:57:08;98870.41;;;16.08;nan
19108;BME280;9686;48.832;9.126;2023-02-18T08:59:33;98856.19;;;16.20;nan
19108;BME280;9686;48.832;9.126;2023-02-18T09:01:59;98859.91;;;16.07;nan
19108;BME280;9686;48.832;9.126;2023-02-18T09:04:24;98849.47;;;16.03;nan
19108;BME280;9686;48.832;9.126;2023-02-18T09:06:49;98840.59;;;16.08;nan
19108;BME280;9686;48.832;9.126;2023-02-18T09:09:16;98853.03;;;15.99;nan
19108;BME280;9686;48.832;9.126;2023-02-18T09:11:42;98846.66;;;16.14;nan
19108;BME280;9686;48.832;9.126;2023-02-18T09:14:07;98855.53;;;16.07;nan
19108;BME280;9686;48.832;9.126;2023-02-18T09:16:33;98854.63;;;16.08;nan
19108;BME280;9686;48.832;9.126;2023-02-18T09:18:58;98849.09;;;16.23;nan
19108;BME280;9686;48.832;9.126;2023-02-18T09:21:23;98840.19;;;16.30;nan
19108;BME280;9686;48.832;9.126;2023-02-18T09:23:49;98838.56;;;16.23;nan
19108;BME280;9686;48.832;9.126;2023-02-18T09:26:17;98846.38;;;16.28;nan
19108;BME280;9686;48.832;9.126;2023-02-18T09:28:42;98832.47;;;16.21;nan
19108;BME280;9686;48.832;9.126;2023-02-18T09:31:10;98828.44;;;16.48;nan
19108;BME280;9686;48.832;9.126;2023-02-18T09:33:38;98835.38;;;16.52;nan
19108;BME280;9686;48.832;9.126;2023-02-18T09:36:05;98829.31;;;16.49;nan
19108;BME280;9686;48.832;9.126;2023-02-18T09:38:30;98835.56;;;16.43;nan
19108;BME280;9686;48.832;9.126;2023-02-18T09:40:56;98823.44;;;16.34;nan
19108;BME280;9686;48.832;9.126;2023-02-18T09:43:31;98819.88;;;16.37;nan
19108;BME280;9686;48.832;9.126;2023-02-18T09:46:00;98831.19;;;16.44;nan
19108;BME280;9686;48.832;9.126;2023-02-18T09:48:28;98818.06;;;16.42;nan
19108;BME280;9686;48.832;9.126;2023-02-18T09:50:55;98816.84;;;16.57;nan
19108;BME280;9686;48.832;9.126;2023-02-18T09:53:22;98822.22;;;16.52;nan
19108;BME280;9686;48.832;9.126;2023-02-18T09:55:48;98811.91;;;16.43;nan
19108;BME280;9686;48.832;9.126;2023-02-18T09:58:20;98827.34;;;16.58;nan
19108;BME280;9686;48.832;9.126;2023-02-18T10:01:05;98818.94;;;16.41;nan
19108;BME280;9686;48.832;9.126;2023-02-18T10:03:34;98817.56;;;16.68;nan
19108;BME280;9686;48.832;9.126;2023-02-18T10:06:07;98815.34;;;16.88;nan
19108;BME280;9686;48.832;9.126;2023-02-18T10:08:43;98829.28;;;16.95;nan
19108;BME280;9686;48.832;9.126;2023-02-18T10:11:14;98825.88;;;16.88;nan
19108;BME280;9686;48.832;9.126;2023-02-18T10:13:43;98821.50;;;16.87;nan
19108;BME280;9686;48.832;9.126;2023-02-18T10:16:15;98830.38;;;16.83;nan
19108;BME280;9686;48.832;9.126;2023-02-18T10:18:42;98830.72;;;16.65;nan
19108;BME280;9686;48.832;9.126;2023-02-18T10:21:12;98819.78;;;16.86;nan
19108;BME280;9686;48.832;9.126;2023-02-18T10:23:41;98824.06;;;16.92;nan
19108;BME280;9686;48.832;9.126;2023-02-18T10:26:14;98831.47;;;17.13;nan
19108;BME280;9686;48.832;9.126;2023-02-18T10:28:41;98834.19;;;17.10;nan
19108;BME280;9686;48.832;9.126;2023-02-18T10:31:08;98827.88;;;17.19;nan
19108;BME280;9686;48.832;9.126;2023-02-18T10:33:59;98832.50;;;17.08;nan
19108;BME280;9686;48.832;9.126;2023-02-18T10:36:44;98828.81;;;17.15;nan
19108;BME280;9686;48.832;9.126;2023-02-18T10:39:20;98814.78;;;17.14;nan
19108;BME280;9686;48.832;9.126;2023-02-18T10:47:42;98810.47;;;17.10;nan
19108;BME280;9686;48.832;9.126;2023-02-18T10:50:34;98819.13;;;17.15;nan
19108;BME280;9686;48.832;9.126;2023-02-18T10:53:10;98810.19;;;17.24;nan
19108;BME280;9686;48.832;9.126;2023-02-18T10:55:42;98798.13;;;17.12;nan
19108;BME280;9686;48.832;9.126;2023-02-18T10:58:44;98799.44;;;17.32;nan
19108;BME280;9686;48.832;9.126;2023-02-18T11:01:15;98795.22;;;17.60;nan
19108;BME280;9686;48.832;9.126;2023-02-18T11:03:44;98793.63;;;17.54;nan
19108;BME280;9686;48.832;9.126;2023-02-18T11:08:42;98800.00;;;17.46;nan
19108;BME280;9686;48.832;9.126;2023-02-18T11:11:22;98785.63;;;17.57;nan
19108;BME280;9686;48.832;9.126;2023-02-18T11:13:53;98793.00;;;17.45;nan
19108;BME280;9686;48.832;9.126;2023-02-18T11:16:21;98787.84;;;17.39;nan
19108;BME280;9686;48.832;9.126;2023-02-18T11:18:47;98791.72;;;17.60;nan
19108;BME280;9686;48.832;9.126;2023-02-18T11:21:34;98791.84;;;17.55;nan
19108;BME280;9686;48.832;9.126;2023-02-18T11:24:11;98770.56;;;17.63;nan
19108;BME280;9686;48.832;9.126;2023-02-18T11:26:39;98761.53;;;17.74;nan
19108;BME280;9686;48.832;9.126;2023-02-18T11:29:25;98766.19;;;17.62;nan
19108;BME280;9686;48.832;9.126;2023-02-18T11:31:54;98767.84;;;17.67;nan
19108;BME280;9686;48.832;9.126;2023-02-18T11:34:29;98767.91;;;17.63;nan
19108;BME280;9686;48.832;9.126;2023-02-18T11:37:10;98763.50;;;17.63;nan
19108;BME280;9686;48.832;9.126;2023-02-18T11:39:42;98763.75;;;17.54;nan
19108;BME280;9686;48.832;9.126;2023-02-18T11:42:12;98766.72;;;17.40;nan
19108;BME280;9686;48.832;9.126;2023-02-18T11:44:42;98750.88;;;17.42;nan
19108;BME280;9686;48.832;9.126;2023-02-18T11:49:38;98751.22;;;17.62;nan
19108;BME280;9686;48.832;9.126;2023-02-18T11:52:15;98749.22;;;17.38;nan
19108;BME280;9686;48.832;9.126;2023-02-18T11:54:41;98753.16;;;17.55;nan
19108;BME280;9686;48.832;9.126;2023-02-18T11:57:11;98757.41;;;17.61;nan
19108;BME280;9686;48.832;9.126;2023-02-18T11:59:39;98755.06;;;17.50;nan
19108;BME280;9686;48.832;9.126;2023-02-18T12:04:42;98740.69;;;17.28;nan
19108;BME280;9686;48.832;9.126;2023-02-18T12:09:57;98757.41;;;17.61;nan
19108;BME280;9686;48.832;9.126;2023-02-18T12:12:31;98752.69;;;17.40;nan
19108;BME280;9686;48.832;9.126;2023-02-18T12:15:00;98749.13;;;17.41;nan
19108;BME280;9686;48.832;9.126;2023-02-18T12:23:11;98748.97;;;17.48;nan
19108;BME280;9686;48.832;9.126;2023-02-18T12:25:49;98743.81;;;17.42;nan
19108;BME280;9686;48.832;9.126;2023-02-18T12:28:25;98740.72;;;17.26;nan
19108;BME280;9686;48.832;9.126;2023-02-18T12:31:14;98747.53;;;17.35;nan
19108;BME280;9686;48.832;9.126;2023-02-18T12:37:04;98749.66;;;17.21;nan
19108;BME280;9686;48.832;9.126;2023-02-18T12:42:52;98750.75;;;17.11;nan
19108;BME280;9686;48.832;9.126;2023-02-18T12:45:29;98754.59;;;16.98;nan
19108;BME280;9686;48.832;9.126;2023-02-18T12:53:56;98743.63;;;17.14;nan
19108;BME280;9686;48.832;9.126;2023-02-18T12:56:39;98740.66;;;16.92;nan
19108;BME280;9686;48.832;9.126;2023-02-18T13:15:20;98737.94;;;16.95;nan
19108;BME280;9686;48.832;9.126;2023-02-18T13:17:48;98744.81;;;17.03;nan
19108;BME280;9686;48.832;9.126;2023-02-18T13:20:22;98737.28;;;16.86;nan
19108;BME280;9686;48.832;9.126;2023-02-18T13:22:50;98725.34;;;16.71;nan
19108;BME280;9686;48.832;9.126;2023-02-18T13:25:18;98715.69;;;16.72;nan
19108;BME280;9686;48.832;9.126;2023-02-18T13:30:26;98717.91;;;16.88;nan
19108;BME280;9686;48.832;9.126;2023-02-18T13:39:04;98708.41;;;16.81;nan
19108;BME280;9686;48.832;9.126;2023-02-18T13:41:37;98709.78;;;16.59;nan
19108;BME280;9686;48.832;9.126;2023-02-18T13:44:38;98707.78;;;16.72;nan
19108;BME280;9686;48.832;9.126;2023-02-18T13:46:53;98704.31;;;16.70;nan
19108;BME280;9686;48.832;9.126;2023-02-18T13:49:31;98705.16;;;16.72;nan
19108;BME280;9686;48.832;9.126;2023-02-18T13:51:58;98702.53;;;16.70;nan
19108;BME280;9686;48.832;9.126;2023-02-18T13:54:40;98701.56;;;16.74;nan
19108;BME280;9686;48.832;9.126;2023-02-18T13:57:26;98691.59;;;16.87;nan
19108;BME280;9686;48.832;9.126;2023-02-18T13:59:58;98689.75;;;16.90;nan
19108;BME280;9686;48.832;9.126;2023-02-18T14:05:13;98698.78;;;16.80;nan
19108;BME280;9686;48.832;9.126;2023-02-18T14:08:08;98685.50;;;16.85;nan
19108;BME280;9686;48.832;9.126;2023-02-18T14:10:36;98675.72;;;16.91;nan
19108;BME280;9686;48.832;9.126;2023-02-18T14:15:58;98679.03;;;17.00;nan
19108;BME280;9686;48.832;9.126;2023-02-18T14:18:58;98674.63;;;17.00;nan
19108;BME280;9686;48.832;9.126;2023-02-18T14:21:41;98661.56;;;16.95;nan
19108;BME280;9686;48.832;9.126;2023-02-18T14:24:09;98673.84;;;16.97;nan
19108;BME280;9686;48.832;9.126;2023-02-18T14:26:38;98665.16;;;16.93;nan
19108;BME280;9686;48.832;9.126;2023-02-18T14:31:49;98667.78;;;16.93;nan
19108;BME280;9686;48.832;9.126;2023-02-18T14:34:42;98671.31;;;16.92;nan
19108;BME280;9686;48.832;9.126;2023-02-18T14:37:48;98657.88;;;17.03;nan
19108;BME280;9686;48.832;9.126;2023-02-18T14:40:31;98661.09;;;17.14;nan
19108;BME280;9686;48.832;9.126;2023-02-18T14:43:38;98670.13;;;17.04;nan
19108;BME280;9686;48.832;9.126;2023-02-18T14:46:42;98669.66;;;16.86;nan
19108;BME280;9686;48.832;9.126;2023-02-18T14:50:04;98675.44;;;17.02;nan
19108;BME280;9686;48.832;9.126;2023-02-18T14:52:18;98673.69;;;17.03;nan
19108;BME280;9686;48.832;9.126;2023-02-18T14:54:47;98664.16;;;16.97;nan
19108;BME280;9686;48.832;9.126;2023-02-18T14:57:15;98670.53;;;16.87;nan
19108;BME280;9686;48.832;9.126;2023-02-18T14:59:42;98670.38;;;16.94;nan
19108;BME280;9686;48.832;9.126;2023-02-18T15:02:17;98668.72;;;16.89;nan
19108;BME280;9686;48.832;9.126;2023-02-18T15:04:43;98666.25;;;16.83;nan
19108;BME280;9686;48.832;9.126;2023-02-18T15:07:10;98651.25;;;16.86;nan
19108;BME280;9686;48.832;9.126;2023-02-18T15:09:51;98671.75;;;16.74;nan
19108;BME280;9686;48.832;9.126;2023-02-18T15:12:20;98672.66;;;16.73;nan
19108;BME280;9686;48.832;9.126;2023-02-18T15:14:47;98683.31;;;16.67;nan
19108;BME280;9686;48.832;9.126;2023-02-18T15:17:23;98675.28;;;16.73;nan
19108;BME280;9686;48.832;9.126;2023-02-18T15:19:53;98678.84;;;16.70;nan
19108;BME280;9686;48.832;9.126;2023-02-18T15:22:24;98673.97;;;16.90;nan